Milldale, Connecticut
Current Conditions -  °F | °C
As of 11:53 PM on Wednesday 22 Oct 2014 (Local Time) from KMMK Reporting Station
Light Rain Light Rain  
Wind Chill: 50°   Ceiling: 1900
Heat Index: 50°   Visibility: 6mi
Dew Point: 46°   Wind: 8mph
Humidity: 86%   Direction: 350°N
Pressure: 29.8"   Gusts: NA
Location:  41.57°N, 72.89°W
Report Text: KMMK 230353Z AUTO 35007KT 6SM -RA BR SCT013 BKN019 OVC026 10/08 A2980 RMK AO2 SLP089 P0009 T01000078 TSNO
Loading
Personal Weather Stations






























Interactive Weather Map
Tropical Storm Tracking
New forecast layout! Learn more

10-Day Weather Forecast

Advertisements
Track Severe Weather on mobile